sensor_id;sensor_type;location;lat;lon;timestamp;temperature;humidity
17891;DHT22;9071;48.220;14.480;2023-11-18T00:04:12;0.30;99.90
17891;DHT22;9071;48.220;14.480;2023-11-18T00:09:18;0.20;99.90
17891;DHT22;9071;48.220;14.480;2023-11-18T00:14:20;0.30;99.90
17891;DHT22;9071;48.220;14.480;2023-11-18T00:19:24;0.40;99.90
17891;DHT22;9071;48.220;14.480;2023-11-18T00:24:26;0.30;99.90
17891;DHT22;9071;48.220;14.480;2023-11-18T00:29:28;0.40;99.90
17891;DHT22;9071;48.220;14.480;2023-11-18T00:34:31;0.50;99.90
17891;DHT22;9071;48.220;14.480;2023-11-18T00:39:33;0.40;99.90
17891;DHT22;9071;48.220;14.480;2023-11-18T00:44:35;0.40;99.90
17891;DHT22;9071;48.220;14.480;2023-11-18T00:49:39;0.40;99.90
17891;DHT22;9071;48.220;14.480;2023-11-18T00:54:41;0.60;99.90
17891;DHT22;9071;48.220;14.480;2023-11-18T00:59:43;0.50;99.90
17891;DHT22;9071;48.220;14.480;2023-11-18T01:04:50;0.50;99.90
17891;DHT22;9071;48.220;14.480;2023-11-18T01:09:52;0.50;99.90
17891;DHT22;9071;48.220;14.480;2023-11-18T01:14:54;0.70;99.90
17891;DHT22;9071;48.220;14.480;2023-11-18T01:19:57;0.70;99.90
17891;DHT22;9071;48.220;14.480;2023-11-18T01:25:02;0.90;99.90
17891;DHT22;9071;48.220;14.480;2023-11-18T01:30:05;1.10;99.90
17891;DHT22;9071;48.220;14.480;2023-11-18T01:35:10;1.10;99.90
17891;DHT22;9071;48.220;14.480;2023-11-18T01:40:13;1.30;99.90
17891;DHT22;9071;48.220;14.480;2023-11-18T01:45:16;1.30;99.90
17891;DHT22;9071;48.220;14.480;2023-11-18T01:50:20;1.40;99.90
17891;DHT22;9071;48.220;14.480;2023-11-18T01:55:22;1.50;99.90
17891;DHT22;9071;48.220;14.480;2023-11-18T02:00:24;1.40;99.90
17891;DHT22;9071;48.220;14.480;2023-11-18T02:05:28;1.40;99.90
17891;DHT22;9071;48.220;14.480;2023-11-18T02:10:30;1.40;99.90
17891;DHT22;9071;48.220;14.480;2023-11-18T02:15:34;1.40;99.90
17891;DHT22;9071;48.220;14.480;2023-11-18T02:20:39;1.40;99.90
17891;DHT22;9071;48.220;14.480;2023-11-18T02:25:44;1.40;99.90
17891;DHT22;9071;48.220;14.480;2023-11-18T02:30:50;1.40;99.90
17891;DHT22;9071;48.220;14.480;2023-11-18T02:36:00;1.20;99.90
17891;DHT22;9071;48.220;14.480;2023-11-18T02:41:10;1.10;99.90
17891;DHT22;9071;48.220;14.480;2023-11-18T02:46:14;1.20;99.90
17891;DHT22;9071;48.220;14.480;2023-11-18T02:51:17;1.40;99.90
17891;DHT22;9071;48.220;14.480;2023-11-18T02:56:20;1.50;99.90
17891;DHT22;9071;48.220;14.480;2023-11-18T03:01:22;1.60;99.90
17891;DHT22;9071;48.220;14.480;2023-11-18T03:06:25;1.50;99.90
17891;DHT22;9071;48.220;14.480;2023-11-18T03:11:29;1.60;99.90
17891;DHT22;9071;48.220;14.480;2023-11-18T03:16:32;1.70;99.90
17891;DHT22;9071;48.220;14.480;2023-11-18T03:21:34;1.70;99.90
17891;DHT22;9071;48.220;14.480;2023-11-18T03:26:39;1.70;99.90
17891;DHT22;9071;48.220;14.480;2023-11-18T03:31:41;1.70;99.90
17891;DHT22;9071;48.220;14.480;2023-11-18T03:36:45;1.70;99.90
17891;DHT22;9071;48.220;14.480;2023-11-18T03:41:49;1.70;99.90
17891;DHT22;9071;48.220;14.480;2023-11-18T03:46:51;1.70;99.90
17891;DHT22;9071;48.220;14.480;2023-11-18T03:51:53;1.80;99.90
17891;DHT22;9071;48.220;14.480;2023-11-18T03:56:56;1.90;99.90
17891;DHT22;9071;48.220;14.480;2023-11-18T04:01:58;2.00;99.90
17891;DHT22;9071;48.220;14.480;2023-11-18T04:07:00;2.00;99.90
17891;DHT22;9071;48.220;14.480;2023-11-18T04:12:04;2.10;99.90
17891;DHT22;9071;48.220;14.480;2023-11-18T04:17:07;2.20;99.90
17891;DHT22;9071;48.220;14.480;2023-11-18T04:22:09;2.20;99.90
17891;DHT22;9071;48.220;14.480;2023-11-18T04:27:12;2.30;99.90
17891;DHT22;9071;48.220;14.480;2023-11-18T04:32:14;2.30;99.90
17891;DHT22;9071;48.220;14.480;2023-11-18T04:37:17;2.40;99.90
17891;DHT22;9071;48.220;14.480;2023-11-18T04:42:20;2.50;99.90
17891;DHT22;9071;48.220;14.480;2023-11-18T04:47:22;2.50;99.90
17891;DHT22;9071;48.220;14.480;2023-11-18T04:52:25;2.70;99.90
17891;DHT22;9071;48.220;14.480;2023-11-18T04:57:29;2.70;99.90
17891;DHT22;9071;48.220;14.480;2023-11-18T05:02:31;2.70;99.90
17891;DHT22;9071;48.220;14.480;2023-11-18T05:07:34;2.70;99.90
17891;DHT22;9071;48.220;14.480;2023-11-18T05:12:38;2.70;99.90
17891;DHT22;9071;48.220;14.480;2023-11-18T05:17:41;2.70;99.90
17891;DHT22;9071;48.220;14.480;2023-11-18T05:22:43;2.70;99.90
17891;DHT22;9071;48.220;14.480;2023-11-18T05:27:48;2.70;99.90
17891;DHT22;9071;48.220;14.480;2023-11-18T05:32:50;2.60;99.90
17891;DHT22;9071;48.220;14.480;2023-11-18T05:37:52;2.50;99.90
17891;DHT22;9071;48.220;14.480;2023-11-18T05:42:56;2.50;99.90
17891;DHT22;9071;48.220;14.480;2023-11-18T05:47:59;2.50;99.90
17891;DHT22;9071;48.220;14.480;2023-11-18T05:53:01;2.50;99.90
17891;DHT22;9071;48.220;14.480;2023-11-18T05:58:05;2.50;99.90
17891;DHT22;9071;48.220;14.480;2023-11-18T06:03:09;2.50;99.90
17891;DHT22;9071;48.220;14.480;2023-11-18T06:08:12;2.50;99.90
17891;DHT22;9071;48.220;14.480;2023-11-18T06:13:16;2.50;99.90
17891;DHT22;9071;48.220;14.480;2023-11-18T06:18:18;2.30;99.90
17891;DHT22;9071;48.220;14.480;2023-11-18T06:23:20;2.30;99.90
17891;DHT22;9071;48.220;14.480;2023-11-18T06:28:25;2.20;99.90
17891;DHT22;9071;48.220;14.480;2023-11-18T06:33:27;2.10;99.90
17891;DHT22;9071;48.220;14.480;2023-11-18T06:38:29;2.10;99.90
17891;DHT22;9071;48.220;14.480;2023-11-18T06:43:35;2.00;99.90
17891;DHT22;9071;48.220;14.480;2023-11-18T06:48:53;1.90;99.90
17891;DHT22;9071;48.220;14.480;2023-11-18T06:53:56;1.90;99.90
17891;DHT22;9071;48.220;14.480;2023-11-18T06:59:00;1.80;99.90
17891;DHT22;9071;48.220;14.480;2023-11-18T07:04:02;2.40;99.90
17891;DHT22;9071;48.220;14.480;2023-11-18T07:09:05;2.20;99.90
17891;DHT22;9071;48.220;14.480;2023-11-18T07:14:14;3.90;99.90
17891;DHT22;9071;48.220;14.480;2023-11-18T07:19:16;3.50;99.90
17891;DHT22;9071;48.220;14.480;2023-11-18T07:24:20;3.10;99.90
17891;DHT22;9071;48.220;14.480;2023-11-18T07:29:24;3.00;99.90
17891;DHT22;9071;48.220;14.480;2023-11-18T07:34:26;2.90;99.90
17891;DHT22;9071;48.220;14.480;2023-11-18T07:39:28;3.00;99.90
17891;DHT22;9071;48.220;14.480;2023-11-18T07:44:46;3.00;99.90
17891;DHT22;9071;48.220;14.480;2023-11-18T07:49:48;3.20;99.90
17891;DHT22;9071;48.220;14.480;2023-11-18T07:54:50;3.40;99.90
17891;DHT22;9071;48.220;14.480;2023-11-18T07:59:54;3.60;99.90
17891;DHT22;9071;48.220;14.480;2023-11-18T08:04:57;4.00;99.90
17891;DHT22;9071;48.220;14.480;2023-11-18T08:09:59;4.70;99.90
17891;DHT22;9071;48.220;14.480;2023-11-18T08:15:02;4.80;99.90
17891;DHT22;9071;48.220;14.480;2023-11-18T08:20:07;4.90;99.90
17891;DHT22;9071;48.220;14.480;2023-11-18T08:25:14;5.00;99.90
17891;DHT22;9071;48.220;14.480;2023-11-18T08:30:19;5.10;99.90
17891;DHT22;9071;48.220;14.480;2023-11-18T08:35:21;5.10;99.90
17891;DHT22;9071;48.220;14.480;2023-11-18T08:40:23;5.20;99.90
17891;DHT22;9071;48.220;14.480;2023-11-18T08:45:28;5.30;99.90
17891;DHT22;9071;48.220;14.480;2023-11-18T08:50:30;5.50;99.90
17891;DHT22;9071;48.220;14.480;2023-11-18T08:55:33;5.80;99.90
17891;DHT22;9071;48.220;14.480;2023-11-18T09:00:43;5.90;99.90
17891;DHT22;9071;48.220;14.480;2023-11-18T09:05:48;6.10;99.90
17891;DHT22;9071;48.220;14.480;2023-11-18T09:10:57;6.20;99.90
17891;DHT22;9071;48.220;14.480;2023-11-18T09:16:03;6.20;99.90
17891;DHT22;9071;48.220;14.480;2023-11-18T09:21:08;6.30;99.90
17891;DHT22;9071;48.220;14.480;2023-11-18T09:26:15;6.60;99.90
17891;DHT22;9071;48.220;14.480;2023-11-18T09:31:18;6.60;99.90
17891;DHT22;9071;48.220;14.480;2023-11-18T09:36:21;6.70;99.90
17891;DHT22;9071;48.220;14.480;2023-11-18T09:41:23;7.00;99.90
17891;DHT22;9071;48.220;14.480;2023-11-18T09:46:29;7.10;99.90
17891;DHT22;9071;48.220;14.480;2023-11-18T09:51:37;7.20;99.90
17891;DHT22;9071;48.220;14.480;2023-11-18T09:56:45;7.20;99.90
17891;DHT22;9071;48.220;14.480;2023-11-18T10:01:59;7.30;99.90
17891;DHT22;9071;48.220;14.480;2023-11-18T10:07:03;7.40;99.90
17891;DHT22;9071;48.220;14.480;2023-11-18T10:12:08;7.40;99.90
17891;DHT22;9071;48.220;14.480;2023-11-18T10:17:14;7.50;99.90
17891;DHT22;9071;48.220;14.480;2023-11-18T10:22:22;7.60;99.90
17891;DHT22;9071;48.220;14.480;2023-11-18T10:27:27;7.70;99.90
17891;DHT22;9071;48.220;14.480;2023-11-18T10:32:31;7.90;99.90
17891;DHT22;9071;48.220;14.480;2023-11-18T10:37:36;8.00;99.90
17891;DHT22;9071;48.220;14.480;2023-11-18T10:42:44;8.00;99.90
17891;DHT22;9071;48.220;14.480;2023-11-18T10:47:50;8.10;99.90
17891;DHT22;9071;48.220;14.480;2023-11-18T10:52:56;8.20;99.90
17891;DHT22;9071;48.220;14.480;2023-11-18T10:57:58;8.60;99.90
17891;DHT22;9071;48.220;14.480;2023-11-18T11:03:03;8.60;99.90
17891;DHT22;9071;48.220;14.480;2023-11-18T11:08:06;8.40;99.90
17891;DHT22;9071;48.220;14.480;2023-11-18T11:13:10;8.00;99.90
17891;DHT22;9071;48.220;14.480;2023-11-18T11:18:19;8.00;99.90
17891;DHT22;9071;48.220;14.480;2023-11-18T11:23:30;8.00;99.90
17891;DHT22;9071;48.220;14.480;2023-11-18T11:28:42;7.80;99.90
17891;DHT22;9071;48.220;14.480;2023-11-18T11:33:53;7.90;99.90
17891;DHT22;9071;48.220;14.480;2023-11-18T11:38:59;8.40;99.90
17891;DHT22;9071;48.220;14.480;2023-11-18T11:44:04;8.90;99.90
17891;DHT22;9071;48.220;14.480;2023-11-18T11:49:09;9.50;99.90
17891;DHT22;9071;48.220;14.480;2023-11-18T11:54:21;9.60;99.90
17891;DHT22;9071;48.220;14.480;2023-11-18T11:59:35;9.50;99.90
17891;DHT22;9071;48.220;14.480;2023-11-18T12:04:39;9.50;99.90
17891;DHT22;9071;48.220;14.480;2023-11-18T12:09:42;9.40;99.90
17891;DHT22;9071;48.220;14.480;2023-11-18T12:14:51;9.20;99.90
17891;DHT22;9071;48.220;14.480;2023-11-18T12:19:58;8.80;99.90
17891;DHT22;9071;48.220;14.480;2023-11-18T12:25:30;8.70;99.90
17891;DHT22;9071;48.220;14.480;2023-11-18T12:30:43;8.70;99.90
17891;DHT22;9071;48.220;14.480;2023-11-18T12:41:33;9.10;99.90
17891;DHT22;9071;48.220;14.480;2023-11-18T12:46:51;8.90;99.90
17891;DHT22;9071;48.220;14.480;2023-11-18T12:51:57;8.60;99.90
17891;DHT22;9071;48.220;14.480;2023-11-18T12:57:01;8.20;99.90
17891;DHT22;9071;48.220;14.480;2023-11-18T13:02:04;8.00;99.90
17891;DHT22;9071;48.220;14.480;2023-11-18T13:07:09;7.90;99.90
17891;DHT22;9071;48.220;14.480;2023-11-18T13:12:13;8.00;99.90
17891;DHT22;9071;48.220;14.480;2023-11-18T13:17:17;7.90;99.90
17891;DHT22;9071;48.220;14.480;2023-11-18T13:22:21;7.80;99.90
17891;DHT22;9071;48.220;14.480;2023-11-18T13:27:23;7.80;99.90
17891;DHT22;9071;48.220;14.480;2023-11-18T13:32:26;7.90;99.90
17891;DHT22;9071;48.220;14.480;2023-11-18T13:37:30;7.90;99.90
17891;DHT22;9071;48.220;14.480;2023-11-18T13:42:33;7.80;99.90
17891;DHT22;9071;48.220;14.480;2023-11-18T13:47:38;7.70;99.90
17891;DHT22;9071;48.220;14.480;2023-11-18T13:52:41;7.60;99.90
17891;DHT22;9071;48.220;14.480;2023-11-18T13:57:44;7.40;99.90
17891;DHT22;9071;48.220;14.480;2023-11-18T14:02:46;7.40;99.90
17891;DHT22;9071;48.220;14.480;2023-11-18T14:07:52;7.20;99.90
17891;DHT22;9071;48.220;14.480;2023-11-18T14:13:00;7.00;99.90
17891;DHT22;9071;48.220;14.480;2023-11-18T14:18:04;6.90;99.90
17891;DHT22;9071;48.220;14.480;2023-11-18T14:23:09;6.70;99.90
17891;DHT22;9071;48.220;14.480;2023-11-18T14:28:12;6.50;99.90
17891;DHT22;9071;48.220;14.480;2023-11-18T14:33:14;6.40;99.90
17891;DHT22;9071;48.220;14.480;2023-11-18T14:38:17;6.30;99.90
17891;DHT22;9071;48.220;14.480;2023-11-18T14:43:20;6.20;99.90
17891;DHT22;9071;48.220;14.480;2023-11-18T14:48:22;6.00;99.90
17891;DHT22;9071;48.220;14.480;2023-11-18T14:53:26;5.80;99.90
17891;DHT22;9071;48.220;14.480;2023-11-18T14:58:28;5.50;99.90
17891;DHT22;9071;48.220;14.480;2023-11-18T15:03:31;5.40;99.90
17891;DHT22;9071;48.220;14.480;2023-11-18T15:08:34;5.20;99.90
17891;DHT22;9071;48.220;14.480;2023-11-18T15:13:36;5.00;99.90
17891;DHT22;9071;48.220;14.480;2023-11-18T15:18:40;4.80;99.90
17891;DHT22;9071;48.220;14.480;2023-11-18T15:23:43;4.60;99.90
17891;DHT22;9071;48.220;14.480;2023-11-18T15:28:46;4.50;99.90
17891;DHT22;9071;48.220;14.480;2023-11-18T15:33:48;4.40;99.90
17891;DHT22;9071;48.220;14.480;2023-11-18T15:38:52;4.30;99.90
17891;DHT22;9071;48.220;14.480;2023-11-18T15:43:54;4.30;99.90
17891;DHT22;9071;48.220;14.480;2023-11-18T15:48:57;4.30;99.90
17891;DHT22;9071;48.220;14.480;2023-11-18T15:54:01;4.50;99.90
17891;DHT22;9071;48.220;14.480;2023-11-18T15:59:03;4.40;99.90
17891;DHT22;9071;48.220;14.480;2023-11-18T16:04:06;4.50;99.90
17891;DHT22;9071;48.220;14.480;2023-11-18T16:09:09;4.40;99.90
17891;DHT22;9071;48.220;14.480;2023-11-18T16:14:11;4.40;99.90
17891;DHT22;9071;48.220;14.480;2023-11-18T16:19:13;4.40;99.90
17891;DHT22;9071;48.220;14.480;2023-11-18T16:24:18;4.40;99.90
17891;DHT22;9071;48.220;14.480;2023-11-18T16:29:20;4.40;99.90
17891;DHT22;9071;48.220;14.480;2023-11-18T16:34:23;4.40;99.90
17891;DHT22;9071;48.220;14.480;2023-11-18T16:39:27;4.30;99.90
17891;DHT22;9071;48.220;14.480;2023-11-18T16:44:29;4.20;99.90
17891;DHT22;9071;48.220;14.480;2023-11-18T16:49:31;4.00;99.90
17891;DHT22;9071;48.220;14.480;2023-11-18T16:54:35;3.90;99.90
17891;DHT22;9071;48.220;14.480;2023-11-18T16:59:37;3.80;99.90
17891;DHT22;9071;48.220;14.480;2023-11-18T17:04:39;3.60;99.90
17891;DHT22;9071;48.220;14.480;2023-11-18T17:09:43;3.30;99.90
17891;DHT22;9071;48.220;14.480;2023-11-18T17:14:48;3.00;99.90
17891;DHT22;9071;48.220;14.480;2023-11-18T17:19:52;2.80;99.90
17891;DHT22;9071;48.220;14.480;2023-11-18T17:24:55;2.50;99.90
17891;DHT22;9071;48.220;14.480;2023-11-18T17:29:57;2.30;99.90
17891;DHT22;9071;48.220;14.480;2023-11-18T17:34:59;2.50;99.90
17891;DHT22;9071;48.220;14.480;2023-11-18T17:40:03;2.70;99.90
17891;DHT22;9071;48.220;14.480;2023-11-18T17:45:06;2.60;99.90
17891;DHT22;9071;48.220;14.480;2023-11-18T17:50:09;2.40;99.90
17891;DHT22;9071;48.220;14.480;2023-11-18T17:55:14;2.20;99.90
17891;DHT22;9071;48.220;14.480;2023-11-18T18:00:17;2.10;99.90
17891;DHT22;9071;48.220;14.480;2023-11-18T18:05:22;1.90;99.90
17891;DHT22;9071;48.220;14.480;2023-11-18T18:10:26;1.80;99.90
17891;DHT22;9071;48.220;14.480;2023-11-18T18:15:29;1.60;99.90
17891;DHT22;9071;48.220;14.480;2023-11-18T18:20:31;1.60;99.90
17891;DHT22;9071;48.220;14.480;2023-11-18T18:25:35;1.60;99.90
17891;DHT22;9071;48.220;14.480;2023-11-18T18:30:37;1.50;99.90
17891;DHT22;9071;48.220;14.480;2023-11-18T18:35:39;1.70;99.90
17891;DHT22;9071;48.220;14.480;2023-11-18T18:40:42;1.60;99.90
17891;DHT22;9071;48.220;14.480;2023-11-18T18:45:45;1.60;99.90
17891;DHT22;9071;48.220;14.480;2023-11-18T18:50:47;1.70;99.90
17891;DHT22;9071;48.220;14.480;2023-11-18T18:55:53;1.60;99.90
17891;DHT22;9071;48.220;14.480;2023-11-18T19:00:55;1.60;99.90
17891;DHT22;9071;48.220;14.480;2023-11-18T19:05:57;1.50;99.90
17891;DHT22;9071;48.220;14.480;2023-11-18T19:11:01;1.40;99.90
17891;DHT22;9071;48.220;14.480;2023-11-18T19:16:03;1.50;99.90
17891;DHT22;9071;48.220;14.480;2023-11-18T19:21:05;1.70;99.90
17891;DHT22;9071;48.220;14.480;2023-11-18T19:26:10;1.90;99.90
17891;DHT22;9071;48.220;14.480;2023-11-18T19:31:12;2.10;99.90
17891;DHT22;9071;48.220;14.480;2023-11-18T19:36:14;2.30;99.90
17891;DHT22;9071;48.220;14.480;2023-11-18T19:41:17;2.40;99.90
17891;DHT22;9071;48.220;14.480;2023-11-18T19:46:19;2.50;99.90
17891;DHT22;9071;48.220;14.480;2023-11-18T19:51:21;2.70;99.90
17891;DHT22;9071;48.220;14.480;2023-11-18T19:56:26;2.80;99.90
17891;DHT22;9071;48.220;14.480;2023-11-18T20:01:29;2.90;99.90
17891;DHT22;9071;48.220;14.480;2023-11-18T20:06:32;3.00;99.90
17891;DHT22;9071;48.220;14.480;2023-11-18T20:11:36;3.00;99.90
17891;DHT22;9071;48.220;14.480;2023-11-18T20:16:38;3.10;99.90
17891;DHT22;9071;48.220;14.480;2023-11-18T20:21:40;3.10;99.90
17891;DHT22;9071;48.220;14.480;2023-11-18T20:26:44;3.10;99.90
17891;DHT22;9071;48.220;14.480;2023-11-18T20:31:46;3.10;99.90
17891;DHT22;9071;48.220;14.480;2023-11-18T20:36:48;3.10;99.90
17891;DHT22;9071;48.220;14.480;2023-11-18T20:41:51;3.10;99.90
17891;DHT22;9071;48.220;14.480;2023-11-18T20:46:54;3.20;99.90
17891;DHT22;9071;48.220;14.480;2023-11-18T20:51:57;3.10;99.90
17891;DHT22;9071;48.220;14.480;2023-11-18T20:57:00;3.20;99.90
17891;DHT22;9071;48.220;14.480;2023-11-18T21:02:03;3.20;99.90
17891;DHT22;9071;48.220;14.480;2023-11-18T21:07:05;3.10;99.90
17891;DHT22;9071;48.220;14.480;2023-11-18T21:12:11;3.10;99.90
17891;DHT22;9071;48.220;14.480;2023-11-18T21:17:13;3.00;99.90
17891;DHT22;9071;48.220;14.480;2023-11-18T21:22:15;3.00;99.90
17891;DHT22;9071;48.220;14.480;2023-11-18T21:27:20;3.00;99.90
17891;DHT22;9071;48.220;14.480;2023-11-18T21:32:22;3.00;99.90
17891;DHT22;9071;48.220;14.480;2023-11-18T21:37:24;3.00;99.90
17891;DHT22;9071;48.220;14.480;2023-11-18T21:42:28;3.00;99.90
17891;DHT22;9071;48.220;14.480;2023-11-18T21:47:31;3.10;99.90
17891;DHT22;9071;48.220;14.480;2023-11-18T21:52:33;3.10;99.90
17891;DHT22;9071;48.220;14.480;2023-11-18T21:57:37;3.10;99.90
17891;DHT22;9071;48.220;14.480;2023-11-18T22:02:41;3.20;99.90
17891;DHT22;9071;48.220;14.480;2023-11-18T22:07:43;3.20;99.90
17891;DHT22;9071;48.220;14.480;2023-11-18T22:12:47;3.20;99.90
17891;DHT22;9071;48.220;14.480;2023-11-18T22:17:49;3.20;99.90
17891;DHT22;9071;48.220;14.480;2023-11-18T22:22:52;3.30;99.90
17891;DHT22;9071;48.220;14.480;2023-11-18T22:27:57;3.30;99.90
17891;DHT22;9071;48.220;14.480;2023-11-18T22:32:59;3.30;99.90
17891;DHT22;9071;48.220;14.480;2023-11-18T22:38:03;3.30;99.90
17891;DHT22;9071;48.220;14.480;2023-11-18T22:43:06;3.30;99.90
17891;DHT22;9071;48.220;14.480;2023-11-18T22:48:09;3.30;99.90
17891;DHT22;9071;48.220;14.480;2023-11-18T22:53:11;3.30;99.90
17891;DHT22;9071;48.220;14.480;2023-11-18T22:58:15;3.30;99.90
17891;DHT22;9071;48.220;14.480;2023-11-18T23:03:17;3.40;99.90
17891;DHT22;9071;48.220;14.480;2023-11-18T23:08:20;3.50;99.90
17891;DHT22;9071;48.220;14.480;2023-11-18T23:13:24;3.50;99.90
17891;DHT22;9071;48.220;14.480;2023-11-18T23:18:26;3.50;99.90
17891;DHT22;9071;48.220;14.480;2023-11-18T23:23:29;3.50;99.90
17891;DHT22;9071;48.220;14.480;2023-11-18T23:28:33;3.50;99.90
17891;DHT22;9071;48.220;14.480;2023-11-18T23:33:35;3.50;99.90
17891;DHT22;9071;48.220;14.480;2023-11-18T23:38:37;3.60;99.90
17891;DHT22;9071;48.220;14.480;2023-11-18T23:43:41;3.60;99.90
17891;DHT22;9071;48.220;14.480;2023-11-18T23:48:43;3.60;99.90
17891;DHT22;9071;48.220;14.480;2023-11-18T23:53:45;3.60;99.90
17891;DHT22;9071;48.220;14.480;2023-11-18T23:58:48;3.60;99.90
